createdAt,value
2018-10-21T00:03:45.231Z,101498.03
2018-10-21T00:08:48.526Z,101501.84
2018-10-21T00:13:51.835Z,101498.19
2018-10-21T00:18:55.158Z,101497.20
2018-10-21T00:23:58.486Z,101501.84
2018-10-21T00:29:01.823Z,101500.11
2018-10-21T00:34:05.344Z,101499.78
2018-10-21T00:39:10.827Z,101500.73
2018-10-21T00:44:14.133Z,101505.38
2018-10-21T00:49:17.458Z,101506.66
2018-10-21T00:54:20.792Z,101501.35
2018-10-21T00:59:24.141Z,101503.67
2018-10-21T01:04:27.433Z,101515.20
2018-10-21T01:09:30.727Z,101510.76
2018-10-21T01:14:34.096Z,101519.56
2018-10-21T01:19:37.456Z,101520.05
2018-10-21T01:24:40.775Z,101515.53
2018-10-21T01:29:46.542Z,101516.36
2018-10-21T01:34:49.829Z,101514.86
2018-10-21T01:40:57.739Z,101507.52
2018-10-21T01:46:01.699Z,101506.84
2018-10-21T01:51:05.098Z,101498.05
2018-10-21T01:56:08.374Z,101490.25
2018-10-21T02:01:11.708Z,101489.03
2018-10-21T02:06:15.033Z,101486.34
2018-10-21T02:11:18.332Z,101484.25
2018-10-21T02:16:21.744Z,101486.92
2018-10-21T02:21:25.053Z,101489.12
2018-10-21T02:26:28.447Z,101485.66
2018-10-21T02:31:31.852Z,101486.64
2018-10-21T02:36:35.277Z,101476.53
2018-10-21T02:41:50.094Z,101471.55
2018-10-21T02:46:55.561Z,101463.70
2018-10-21T02:52:04.326Z,101468.55
2018-10-21T02:57:09.823Z,101475.61
2018-10-21T03:02:13.144Z,101471.31
2018-10-21T03:07:16.563Z,101471.16
2018-10-21T03:12:19.898Z,101471.13
2018-10-21T03:17:23.226Z,101475.61
2018-10-21T03:22:26.682Z,101476.72
2018-10-21T03:27:29.982Z,101480.95
2018-10-21T03:32:33.267Z,101484.85
2018-10-21T03:37:36.586Z,101480.60
2018-10-21T03:42:39.943Z,101482.33
2018-10-21T03:47:43.248Z,101475.80
2018-10-21T03:52:46.645Z,101477.31
2018-10-21T03:57:50.012Z,101480.52
2018-10-21T04:02:53.294Z,101488.07
2018-10-21T04:07:56.614Z,101500.23
2018-10-21T04:13:00.122Z,101499.73
2018-10-21T04:18:03.432Z,101502.34
2018-10-21T04:23:06.750Z,101505.31
2018-10-21T04:28:10.709Z,101502.73
2018-10-21T04:33:48.438Z,101501.30
2018-10-21T04:40:01.438Z,101497.91
2018-10-21T04:45:06.444Z,101503.27
2018-10-21T04:50:10.530Z,101503.15
2018-10-21T04:55:15.119Z,101500.87
2018-10-21T05:00:20.244Z,101493.57
2018-10-21T05:05:23.553Z,101500.97
2018-10-21T05:10:28.693Z,101502.70
2018-10-21T05:15:34.130Z,101504.92
2018-10-21T05:20:37.405Z,101500.76
2018-10-21T05:25:40.723Z,101495.16
2018-10-21T05:30:44.026Z,101502.13
2018-10-21T05:35:47.326Z,101516.92
2018-10-21T05:40:51.053Z,101509.62
2018-10-21T05:45:54.435Z,101513.45
2018-10-21T05:50:57.762Z,101520.55
2018-10-21T05:56:01.195Z,101523.48
2018-10-21T06:01:04.651Z,101529.48
2018-10-21T06:06:07.963Z,101527.12
2018-10-21T06:11:11.285Z,101540.22
2018-10-21T06:16:15.049Z,101549.23
2018-10-21T06:21:18.855Z,101549.30
2018-10-21T06:26:22.781Z,101556.69
2018-10-21T06:31:26.149Z,101566.03
2018-10-21T06:36:29.560Z,101570.02
2018-10-21T06:41:33.020Z,101580.75
2018-10-21T06:46:36.740Z,101587.08
2018-10-21T06:51:40.078Z,101582.48
2018-10-21T06:56:43.543Z,101583.17
2018-10-21T07:01:46.726Z,101578.16
2018-10-21T07:06:50.044Z,101580.75
2018-10-21T07:11:53.548Z,101581.63
2018-10-21T07:16:56.954Z,101576.61
2018-10-21T07:22:00.302Z,101583.82
2018-10-21T07:27:03.642Z,101594.75
2018-10-21T07:32:07.373Z,101600.55
2018-10-21T07:37:11.455Z,101597.52
2018-10-21T07:42:14.864Z,101605.38
2018-10-21T07:47:18.206Z,101606.48
2018-10-21T07:52:21.521Z,101613.56
2018-10-21T07:57:25.136Z,101608.81
2018-10-21T08:02:28.740Z,101613.95
2018-10-21T08:07:43.568Z,101618.37
2018-10-21T08:12:46.866Z,101620.85
2018-10-21T08:17:50.374Z,101625.58
2018-10-21T08:22:53.885Z,101629.10
2018-10-21T08:27:57.440Z,101622.12
2018-10-21T08:33:00.859Z,101627.96
2018-10-21T08:38:04.326Z,101635.66
2018-10-21T08:43:07.678Z,101639.11
2018-10-21T08:48:11.000Z,101644.29
2018-10-21T08:53:14.332Z,101641.13
2018-10-21T08:58:17.946Z,101635.19
2018-10-21T09:03:21.304Z,101633.79
2018-10-21T09:08:24.680Z,101628.30
2018-10-21T09:13:28.207Z,101626.30
2018-10-21T09:18:31.517Z,101620.35
2018-10-21T09:23:34.895Z,101615.25
2018-10-21T09:28:38.366Z,101616.11
2018-10-21T09:33:41.783Z,101604.68
2018-10-21T09:38:45.310Z,101611.19
2018-10-21T09:43:48.955Z,101603.87
2018-10-21T10:39:31.110Z,101559.17
2018-10-21T10:44:34.453Z,101551.64
2018-10-21T10:49:37.778Z,101546.73
2018-10-21T10:54:41.138Z,101537.77
2018-10-21T10:59:44.513Z,101541.00
2018-10-21T11:04:48.761Z,101534.47
2018-10-21T11:09:53.230Z,101537.52
2018-10-21T11:14:57.285Z,101529.97
2018-10-21T11:20:01.426Z,101520.27
2018-10-21T11:25:08.847Z,101507.14
2018-10-21T11:30:13.019Z,101497.20
2018-10-21T11:35:17.307Z,101502.91
2018-10-21T11:40:20.610Z,101503.00
2018-10-21T11:45:24.530Z,101496.47
2018-10-21T11:50:28.465Z,101490.39
2018-10-21T11:55:39.234Z,101482.53
2018-10-21T12:00:43.977Z,101485.88
2018-10-21T12:05:47.459Z,101482.30
2018-10-21T12:10:51.126Z,101476.81
2018-10-21T12:15:54.961Z,101477.45
2018-10-21T12:20:58.856Z,101479.89
2018-10-21T12:26:02.261Z,101467.45
2018-10-21T12:31:05.821Z,101469.49
2018-10-21T12:36:09.616Z,101457.70
2018-10-21T12:41:13.338Z,101462.64
2018-10-21T12:46:16.732Z,101458.33
2018-10-21T12:51:20.300Z,101451.75
2018-10-21T12:56:23.978Z,101449.64
2018-10-21T13:01:27.458Z,101445.80
2018-10-21T13:06:31.139Z,101441.92
2018-10-21T13:11:34.474Z,101439.54
2018-10-21T13:16:37.828Z,101435.73
2018-10-21T13:21:41.331Z,101431.95
2018-10-21T13:26:44.721Z,101430.25
2018-10-21T13:31:48.485Z,101429.80
2018-10-21T13:36:52.733Z,101418.47
2018-10-21T13:41:56.403Z,101415.45
2018-10-21T13:46:59.943Z,101417.66
2018-10-21T13:52:03.553Z,101419.64
2018-10-21T13:57:06.821Z,101417.00
2018-10-21T14:02:10.288Z,101410.98
2018-10-21T14:07:16.669Z,101410.37
2018-10-21T14:12:20.110Z,101404.20
2018-10-21T14:17:23.475Z,101403.78
2018-10-21T14:22:26.814Z,101401.81
2018-10-21T14:27:30.243Z,101397.22
2018-10-21T14:32:33.798Z,101390.91
2018-10-21T14:37:37.672Z,101384.53
2018-10-21T14:42:41.266Z,101384.16
2018-10-21T14:47:44.823Z,101383.03
2018-10-21T14:52:48.780Z,101378.81
2018-10-21T14:57:52.266Z,101381.36
2018-10-21T15:02:55.936Z,101372.87
2018-10-21T15:07:59.648Z,101377.98
2018-10-21T15:13:03.724Z,101375.31
2018-10-21T15:18:07.588Z,101378.03
2018-10-21T15:23:11.159Z,101372.97
2018-10-21T15:28:15.026Z,101371.56
2018-10-21T15:33:18.373Z,101369.83
2018-10-21T15:38:21.874Z,101371.44
2018-10-21T15:43:25.233Z,101371.00
2018-10-21T15:48:28.654Z,101369.54
2018-10-21T15:53:31.950Z,101373.13
2018-10-21T15:58:35.335Z,101367.02
2018-10-21T16:03:38.924Z,101366.78
2018-10-21T16:08:42.232Z,101365.92
2018-10-21T16:13:45.679Z,101362.92
2018-10-21T16:18:49.018Z,101360.38
2018-10-21T16:23:52.310Z,101366.13
2018-10-21T16:28:55.716Z,101372.37
2018-10-21T16:33:59.090Z,101379.09
2018-10-21T16:39:02.460Z,101375.47
2018-10-21T16:44:05.944Z,101387.84
2018-10-21T16:49:09.255Z,101376.56
2018-10-21T16:54:12.714Z,101377.23
2018-10-21T16:59:16.063Z,101388.41
2018-10-21T17:04:19.330Z,101388.72
2018-10-21T17:09:22.763Z,101395.05
2018-10-21T17:14:26.665Z,101387.85
2018-10-21T17:19:30.661Z,101387.49
2018-10-21T17:24:34.443Z,101386.34
2018-10-21T17:29:37.873Z,101394.29
2018-10-21T17:34:41.598Z,101391.43
2018-10-21T17:39:45.195Z,101392.23
2018-10-21T17:44:49.620Z,101392.38
2018-10-21T17:49:53.410Z,101385.37
2018-10-21T17:54:56.888Z,101390.97
2018-10-21T18:00:00.436Z,101387.40
2018-10-21T18:05:04.537Z,101386.20
2018-10-21T18:10:08.005Z,101396.60
2018-10-21T18:15:12.228Z,101393.78
2018-10-21T18:20:15.706Z,101395.56
2018-10-21T18:25:19.305Z,101393.67
2018-10-21T18:30:23.604Z,101393.17
2018-10-21T18:35:27.083Z,101388.03
2018-10-21T18:40:30.512Z,101394.83
2018-10-21T18:45:33.799Z,101391.68
2018-10-21T18:50:37.222Z,101385.37
2018-10-21T18:55:40.811Z,101389.52
2018-10-21T19:00:44.286Z,101389.86
2018-10-21T19:05:47.699Z,101392.72
2018-10-21T19:10:51.076Z,101401.45
2018-10-21T19:15:54.586Z,101404.44
2018-10-21T19:20:57.958Z,101401.69
2018-10-21T19:26:01.371Z,101392.77
2018-10-21T19:31:04.727Z,101390.59
2018-10-21T19:36:08.063Z,101392.13
2018-10-21T19:41:11.446Z,101393.23
2018-10-21T19:46:15.449Z,101390.35
2018-10-21T19:51:18.972Z,101391.69
2018-10-21T19:56:22.516Z,101392.78
2018-10-21T20:01:25.934Z,101398.47
2018-10-21T20:06:29.242Z,101388.20
2018-10-21T20:11:32.534Z,101383.32
2018-10-21T20:16:35.878Z,101392.44
2018-10-21T20:21:40.142Z,101390.39
2018-10-21T20:26:43.682Z,101397.72
2018-10-21T20:31:47.151Z,101393.00
2018-10-21T20:36:51.102Z,101394.09
2018-10-21T20:41:55.267Z,101389.56
2018-10-21T20:46:59.232Z,101389.07
2018-10-21T20:52:02.756Z,101383.02
2018-10-21T20:57:08.256Z,101381.44
2018-10-21T21:02:12.767Z,101381.97
2018-10-21T21:07:16.857Z,101382.86
2018-10-21T21:12:20.210Z,101382.98
2018-10-21T21:17:23.502Z,101374.85
2018-10-21T21:22:27.022Z,101373.64
2018-10-21T21:27:30.523Z,101378.82
2018-10-21T21:43:49.368Z,101384.80
2018-10-21T21:48:52.777Z,101373.23
2018-10-21T21:53:56.115Z,101367.31
2018-10-21T21:58:59.530Z,101370.11
2018-10-21T22:04:02.930Z,101366.41
2018-10-21T22:09:10.493Z,101374.47
2018-10-21T22:14:13.777Z,101376.77
2018-10-21T22:19:17.078Z,101360.60
2018-10-21T22:24:20.448Z,101368.61
2018-10-21T22:29:23.802Z,101370.65
2018-10-21T22:34:27.134Z,101367.17
2018-10-21T22:39:30.476Z,101371.63
2018-10-21T22:44:33.830Z,101366.14
2018-10-21T22:49:37.151Z,101372.87
2018-10-21T22:54:40.469Z,101369.06
2018-10-21T22:59:43.802Z,101365.78
2018-10-21T23:04:47.570Z,101371.84
2018-10-21T23:09:51.297Z,101364.25
2018-10-21T23:14:54.668Z,101366.84
2018-10-21T23:19:57.978Z,101356.18
2018-10-21T23:25:01.349Z,101354.49
2018-10-21T23:30:06.735Z,101352.55
2018-10-21T23:35:10.039Z,101350.50
2018-10-21T23:40:13.359Z,101346.83
2018-10-21T23:45:16.662Z,101344.96
2018-10-21T23:50:19.975Z,101350.73
2018-10-21T23:55:23.264Z,101344.33
